createdAt,value
2023-03-05T00:00:31.685Z,25.13
2023-03-05T00:02:59.751Z,24.07
2023-03-05T00:05:27.963Z,26.00
2023-03-05T00:07:55.867Z,24.23
2023-03-05T00:10:23.720Z,21.63
2023-03-05T00:12:51.573Z,22.33
2023-03-05T00:15:20.825Z,21.80
2023-03-05T00:17:48.739Z,24.27
2023-03-05T00:20:16.855Z,21.50
2023-03-05T00:22:45.136Z,23.27
2023-03-05T00:25:13.332Z,24.87
2023-03-05T00:27:41.244Z,24.47
2023-03-05T00:30:10.576Z,23.37
2023-03-05T00:32:39.882Z,22.57
2023-03-05T00:35:08.601Z,24.47
2023-03-05T00:37:36.608Z,23.97
2023-03-05T00:40:05.428Z,23.97
2023-03-05T00:42:38.578Z,22.37
2023-03-05T00:45:07.957Z,21.80
2023-03-05T00:47:36.265Z,23.50
2023-03-05T00:50:07.669Z,25.83
2023-03-05T00:52:35.534Z,24.33
2023-03-05T00:55:03.380Z,23.67
2023-03-05T00:57:31.188Z,23.97
2023-03-05T00:59:59.019Z,24.10
2023-03-05T01:02:27.107Z,24.53
2023-03-05T01:04:54.997Z,24.17
2023-03-05T01:07:24.224Z,22.50
2023-03-05T01:09:52.079Z,23.37
2023-03-05T01:12:19.890Z,25.30
2023-03-05T01:14:47.693Z,22.93
2023-03-05T01:17:15.560Z,21.30
2023-03-05T01:19:43.394Z,24.20
2023-03-05T01:22:11.240Z,23.40
2023-03-05T01:24:40.457Z,22.77
2023-03-05T01:27:08.394Z,19.80
2023-03-05T01:29:37.613Z,21.67
2023-03-05T01:32:05.744Z,21.10
2023-03-05T01:34:33.643Z,21.43
2023-03-05T01:37:01.520Z,22.17
2023-03-05T01:39:29.359Z,19.67
2023-03-05T01:41:58.537Z,22.27
2023-03-05T01:44:28.372Z,22.37
2023-03-05T01:46:56.280Z,23.33
2023-03-05T01:49:26.893Z,19.70
2023-03-05T01:52:01.067Z,23.13
2023-03-05T01:54:33.672Z,18.67
2023-03-05T01:57:09.217Z,19.43
2023-03-05T01:59:38.035Z,21.27
2023-03-05T02:02:08.105Z,19.50
2023-03-05T02:04:42.112Z,21.97
2023-03-05T02:07:10.689Z,22.50
2023-03-05T02:09:42.438Z,23.53
2023-03-05T02:12:13.319Z,23.23
2023-03-05T02:14:43.674Z,24.33
2023-03-05T02:17:11.997Z,22.13
2023-03-05T02:19:51.524Z,24.17
2023-03-05T02:22:23.426Z,23.13
2023-03-05T02:24:52.440Z,22.40
2023-03-05T02:27:24.454Z,23.97
2023-03-05T02:29:53.597Z,22.37
2023-03-05T02:32:21.519Z,22.13
2023-03-05T02:34:49.338Z,23.70
2023-03-05T02:37:17.312Z,23.53
2023-03-05T02:39:46.568Z,24.67
2023-03-05T02:42:14.493Z,21.73
2023-03-05T02:44:42.394Z,31.13
2023-03-05T02:47:10.222Z,23.57
2023-03-05T02:49:38.110Z,22.97
2023-03-05T02:52:06.575Z,24.20
2023-03-05T02:54:34.477Z,26.90
2023-03-05T02:57:03.721Z,24.30
2023-03-05T02:59:31.592Z,24.70
2023-03-05T03:01:59.434Z,25.27
2023-03-05T03:04:27.337Z,24.97
2023-03-05T03:06:55.202Z,25.10
2023-03-05T03:09:23.041Z,23.63
2023-03-05T03:11:50.890Z,27.53
2023-03-05T03:14:20.291Z,24.43
2023-03-05T03:16:48.215Z,26.73
2023-03-05T03:19:16.481Z,25.07
2023-03-05T03:21:44.297Z,25.60
2023-03-05T03:24:12.183Z,25.53
2023-03-05T03:26:40.034Z,25.70
2023-03-05T03:29:07.970Z,24.63
2023-03-05T03:31:40.110Z,26.47
2023-03-05T03:34:07.940Z,27.07
2023-03-05T03:36:36.114Z,24.40
2023-03-05T03:39:05.995Z,25.90
2023-03-05T03:41:34.529Z,24.77
2023-03-05T03:44:03.521Z,29.97
2023-03-05T03:46:31.579Z,25.67
2023-03-05T03:49:00.838Z,28.33
2023-03-05T03:51:28.898Z,24.47
2023-03-05T03:53:57.379Z,27.60
2023-03-05T03:56:25.261Z,25.27
2023-03-05T03:58:54.174Z,25.63
2023-03-05T04:01:22.459Z,25.17
2023-03-05T04:03:50.407Z,27.03
2023-03-05T04:06:19.696Z,24.20
2023-03-05T04:08:47.579Z,27.77
2023-03-05T04:11:19.323Z,26.07
2023-03-05T04:13:47.545Z,31.57
2023-03-05T04:16:15.948Z,27.13
2023-03-05T04:18:44.336Z,27.80
2023-03-05T04:21:12.706Z,27.30
2023-03-05T04:23:42.305Z,29.43
2023-03-05T04:26:10.153Z,28.77
2023-03-05T04:28:38.056Z,27.80
2023-03-05T04:31:06.441Z,27.27
2023-03-05T04:33:34.857Z,26.77
2023-03-05T04:36:02.730Z,25.20
2023-03-05T04:38:30.621Z,28.67
2023-03-05T04:40:59.867Z,28.43
2023-03-05T04:43:27.793Z,28.30
2023-03-05T04:45:57.099Z,24.40
2023-03-05T04:48:24.913Z,26.10
2023-03-05T04:50:53.106Z,28.40
2023-03-05T04:53:20.979Z,28.53
2023-03-05T04:55:53.790Z,25.77
2023-03-05T04:58:23.087Z,24.40
2023-03-05T05:00:50.989Z,25.27
2023-03-05T05:03:19.015Z,27.10
2023-03-05T05:05:47.003Z,26.97
2023-03-05T05:08:14.856Z,28.87
2023-03-05T05:10:42.741Z,27.17
2023-03-05T05:13:10.657Z,25.87
2023-03-05T05:15:41.553Z,30.93
2023-03-05T05:18:09.403Z,29.40
2023-03-05T05:20:37.233Z,24.90
2023-03-05T05:23:05.118Z,26.03
2023-03-05T05:25:32.989Z,25.10
2023-03-05T05:28:00.906Z,27.17
2023-03-05T05:30:28.731Z,28.73
2023-03-05T05:32:58.510Z,28.00
2023-03-05T05:35:26.367Z,30.47
2023-03-05T05:37:54.465Z,25.90
2023-03-05T05:40:23.393Z,25.90
2023-03-05T05:42:51.229Z,26.90
2023-03-05T05:45:19.218Z,26.10
2023-03-05T05:47:47.141Z,25.63
2023-03-05T05:50:16.527Z,25.33
2023-03-05T05:52:44.371Z,27.53
2023-03-05T05:55:15.337Z,25.63
2023-03-05T05:57:43.196Z,22.57
2023-03-05T06:00:14.052Z,22.67
2023-03-05T06:02:42.654Z,21.90
2023-03-05T06:05:13.377Z,25.30
2023-03-05T06:07:43.101Z,23.30
2023-03-05T06:10:12.384Z,22.50
2023-03-05T06:12:40.284Z,23.33
2023-03-05T06:15:09.150Z,21.63
2023-03-05T06:17:37.062Z,26.60
2023-03-05T06:20:05.574Z,22.20
2023-03-05T06:22:36.683Z,25.53
2023-03-05T06:25:07.240Z,22.87
2023-03-05T06:27:39.245Z,24.57
2023-03-05T06:30:10.847Z,26.27
2023-03-05T06:32:39.786Z,20.77
2023-03-05T06:35:09.131Z,24.60
2023-03-05T06:37:37.030Z,20.17
2023-03-05T06:40:07.791Z,22.00
2023-03-05T06:42:35.933Z,26.17
2023-03-05T06:45:04.236Z,22.87
2023-03-05T06:47:32.593Z,25.07
2023-03-05T06:50:00.425Z,23.47
2023-03-05T06:52:28.309Z,22.47
2023-03-05T06:54:56.818Z,22.10
2023-03-05T06:57:26.096Z,23.57
2023-03-05T06:59:54.007Z,28.80
2023-03-05T07:02:22.102Z,24.47
2023-03-05T07:04:49.957Z,23.57
2023-03-05T07:07:20.240Z,24.43
2023-03-05T07:09:50.381Z,23.47
2023-03-05T07:12:20.680Z,20.57
2023-03-05T07:14:50.070Z,21.43
2023-03-05T07:17:19.866Z,20.37
2023-03-05T07:19:48.059Z,20.03
2023-03-05T07:22:17.479Z,23.77
2023-03-05T07:24:45.443Z,21.90
2023-03-05T07:27:13.346Z,21.53
2023-03-05T07:29:41.346Z,21.90
2023-03-05T07:32:10.956Z,22.73
2023-03-05T07:34:39.590Z,21.90
2023-03-05T07:37:08.355Z,26.33
2023-03-05T07:39:36.595Z,23.50
2023-03-05T07:42:04.808Z,23.30
2023-03-05T07:44:33.074Z,28.33
2023-03-05T07:47:01.647Z,23.63
2023-03-05T07:49:31.452Z,22.97
2023-03-05T07:51:59.314Z,23.30
2023-03-05T07:54:27.160Z,26.63
2023-03-05T07:56:57.274Z,26.20
2023-03-05T07:59:25.159Z,22.20
2023-03-05T08:01:53.067Z,22.60
2023-03-05T08:04:21.049Z,23.70
2023-03-05T08:06:50.717Z,22.70
2023-03-05T08:09:19.925Z,23.07
2023-03-05T08:11:47.870Z,28.80
2023-03-05T08:14:15.737Z,24.50
2023-03-05T08:16:44.090Z,24.73
2023-03-05T08:19:13.246Z,23.03
2023-03-05T08:21:41.139Z,22.80
2023-03-05T08:24:13.425Z,25.07
2023-03-05T08:26:45.424Z,24.93
2023-03-05T08:29:15.849Z,22.77
2023-03-05T08:31:54.962Z,23.83
2023-03-05T08:34:34.933Z,25.30
2023-03-05T08:37:10.420Z,24.63
2023-03-05T08:39:47.327Z,24.67
2023-03-05T08:42:16.145Z,24.53
2023-03-05T08:44:44.831Z,22.70
2023-03-05T08:47:16.341Z,22.10
2023-03-05T08:49:47.687Z,24.43
2023-03-05T08:52:26.666Z,26.00
2023-03-05T08:54:59.307Z,25.17
2023-03-05T08:57:28.624Z,23.50
2023-03-05T09:00:02.125Z,22.37
2023-03-05T09:02:30.168Z,24.60
2023-03-05T09:05:01.030Z,24.53
2023-03-05T09:07:29.848Z,23.77
2023-03-05T09:10:10.187Z,26.00
2023-03-05T09:12:40.659Z,26.07
2023-03-05T09:15:14.364Z,23.70
2023-03-05T09:17:46.483Z,24.63
2023-03-05T09:20:16.536Z,24.23
2023-03-05T09:22:46.141Z,22.53
2023-03-05T09:25:17.752Z,22.50
2023-03-05T09:27:48.654Z,25.37
2023-03-05T09:30:18.810Z,22.67
2023-03-05T09:32:51.471Z,19.30
2023-03-05T09:35:19.578Z,23.77
2023-03-05T09:37:47.509Z,20.37
2023-03-05T09:40:27.912Z,22.70
2023-03-05T09:43:07.708Z,21.87
2023-03-05T09:45:43.569Z,21.37
2023-03-05T09:48:26.387Z,20.10
2023-03-05T09:51:02.446Z,19.33
2023-03-05T09:53:40.967Z,21.50
2023-03-05T09:56:15.694Z,20.20
2023-03-05T09:58:47.355Z,20.40
2023-03-05T10:01:19.842Z,18.67
2023-03-05T10:03:58.571Z,19.53
2023-03-05T10:06:31.100Z,22.33
2023-03-05T10:09:05.590Z,19.00
2023-03-05T10:11:46.628Z,19.07
2023-03-05T10:14:23.105Z,20.17
2023-03-05T10:17:43.978Z,19.63
2023-03-05T10:20:28.502Z,19.87
2023-03-05T10:23:27.819Z,20.30
2023-03-05T10:26:17.881Z,17.93
2023-03-05T10:28:55.161Z,18.97
2023-03-05T10:31:37.742Z,16.73
2023-03-05T10:34:33.003Z,16.63
2023-03-05T10:37:15.150Z,17.37
2023-03-05T10:40:03.158Z,17.50
2023-03-05T10:42:39.644Z,16.40
2023-03-05T10:45:16.282Z,14.50
2023-03-05T10:47:49.568Z,15.93
2023-03-05T10:50:22.273Z,15.47
2023-03-05T10:53:01.323Z,13.63
2023-03-05T10:55:34.101Z,15.73
2023-03-05T10:58:11.401Z,14.03
2023-03-05T11:01:01.384Z,13.87
2023-03-05T11:03:48.090Z,15.73
2023-03-05T11:06:27.073Z,14.97
2023-03-05T11:08:58.163Z,15.13
2023-03-05T11:11:26.143Z,16.43
2023-03-05T11:13:57.324Z,16.07
2023-03-05T11:16:35.803Z,21.13
2023-03-05T11:19:22.957Z,16.70
2023-03-05T11:22:14.343Z,16.87
2023-03-05T11:25:07.725Z,17.93
2023-03-05T11:27:39.031Z,16.17
2023-03-05T11:30:24.990Z,16.40
2023-03-05T11:33:12.512Z,17.05
2023-03-05T11:35:45.190Z,16.83
2023-03-05T11:38:20.782Z,16.27
2023-03-05T11:40:52.060Z,16.42
2023-03-05T11:43:34.172Z,16.52
2023-03-05T11:46:05.583Z,16.52
2023-03-05T11:48:48.605Z,17.40
2023-03-05T11:51:22.472Z,16.45
2023-03-05T11:53:56.169Z,16.38
2023-03-05T11:56:38.105Z,19.10
2023-03-05T11:59:18.044Z,17.05
2023-03-05T12:01:50.149Z,15.85
2023-03-05T12:04:23.644Z,16.75
2023-03-05T12:09:51.147Z,16.45
2023-03-05T12:12:38.528Z,15.55
2023-03-05T12:15:27.247Z,14.25
2023-03-05T12:18:10.750Z,15.40
2023-03-05T12:21:00.411Z,15.65
2023-03-05T12:23:28.750Z,14.55
2023-03-05T12:26:02.395Z,13.32
2023-03-05T12:28:57.425Z,14.07
2023-03-05T12:31:39.607Z,11.60
2023-03-05T12:34:58.296Z,13.98
2023-03-05T12:38:01.808Z,12.23
2023-03-05T12:40:37.080Z,13.45
2023-03-05T12:43:07.527Z,13.30
2023-03-05T12:45:46.365Z,13.32
2023-03-05T12:48:44.135Z,13.07
2023-03-05T12:51:40.221Z,12.47
2023-03-05T12:54:30.369Z,12.73
2023-03-05T12:57:01.024Z,13.93
2023-03-05T12:59:44.117Z,14.00
2023-03-05T13:02:22.168Z,16.07
2023-03-05T13:04:59.618Z,15.60
2023-03-05T13:07:27.556Z,14.80
2023-03-05T13:09:58.721Z,15.20
2023-03-05T13:12:31.850Z,13.33
2023-03-05T13:15:04.614Z,19.30
2023-03-05T13:17:39.351Z,14.10
2023-03-05T13:20:26.743Z,13.57
2023-03-05T13:23:23.119Z,14.13
2023-03-05T13:26:04.606Z,12.20
2023-03-05T13:28:36.238Z,12.10
2023-03-05T13:31:13.732Z,14.57
2023-03-05T13:33:43.619Z,13.27
2023-03-05T13:36:17.309Z,13.70
2023-03-05T13:38:50.073Z,12.67
2023-03-05T13:41:30.208Z,13.17
2023-03-05T13:44:02.798Z,12.73
2023-03-05T13:46:34.990Z,17.47
2023-03-05T13:49:20.382Z,15.57
2023-03-05T13:51:50.174Z,17.10
2023-03-05T13:54:21.798Z,17.23
2023-03-05T13:56:53.687Z,16.93
2023-03-05T13:59:23.555Z,14.50
2023-03-05T14:01:53.091Z,17.57
2023-03-05T14:04:25.287Z,17.20
2023-03-05T14:06:59.451Z,19.27
2023-03-05T14:09:29.748Z,18.30
2023-03-05T14:12:02.033Z,17.83
2023-03-05T14:14:33.712Z,18.30
2023-03-05T14:17:23.664Z,16.97
2023-03-05T14:19:52.735Z,14.70
2023-03-05T14:22:36.973Z,15.00
2023-03-05T14:25:06.968Z,14.80
2023-03-05T14:27:38.555Z,15.57
2023-03-05T14:30:24.509Z,14.90
2023-03-05T14:32:55.430Z,16.23
2023-03-05T14:35:26.689Z,16.80
2023-03-05T14:38:06.063Z,17.20
2023-03-05T14:40:43.847Z,15.33
2023-03-05T14:43:14.971Z,18.07
2023-03-05T14:46:12.441Z,15.03
2023-03-05T14:48:51.193Z,16.00
2023-03-05T14:55:08.741Z,16.27
2023-03-05T15:01:09.774Z,16.47
2023-03-05T15:03:41.185Z,16.13
2023-03-05T15:06:35.215Z,15.37
2023-03-05T15:09:24.057Z,21.13
2023-03-05T15:11:56.402Z,16.67
2023-03-05T15:14:28.260Z,16.00
2023-03-05T15:18:03.134Z,17.23
2023-03-05T15:20:55.832Z,17.47
2023-03-05T15:23:46.120Z,17.80
2023-03-05T15:40:17.449Z,17.40
2023-03-05T15:43:33.312Z,17.67
2023-03-05T15:50:44.252Z,17.93
2023-03-05T15:54:16.884Z,16.40
2023-03-05T16:01:13.986Z,17.87
2023-03-05T16:08:12.722Z,14.80
2023-03-05T16:10:45.085Z,17.03
2023-03-05T16:13:19.839Z,16.73
2023-03-05T16:15:57.607Z,16.67
2023-03-05T16:18:30.321Z,15.30
2023-03-05T16:21:02.821Z,18.50
2023-03-05T16:23:40.538Z,15.97
2023-03-05T16:26:15.204Z,17.27
2023-03-05T16:28:44.089Z,16.53
2023-03-05T16:31:53.921Z,18.80
2023-03-05T16:34:26.529Z,24.53
2023-03-05T16:36:54.701Z,18.27
2023-03-05T16:39:36.488Z,15.57
2023-03-05T16:42:11.690Z,15.87
2023-03-05T16:44:40.676Z,16.73
2023-03-05T16:47:09.495Z,18.07
2023-03-05T16:49:47.153Z,17.27
2023-03-05T16:52:19.060Z,17.77
2023-03-05T16:54:50.029Z,17.30
2023-03-05T16:57:18.382Z,18.00
2023-03-05T16:59:49.033Z,17.80
2023-03-05T17:02:17.743Z,17.97
2023-03-05T17:04:49.233Z,16.40
2023-03-05T17:07:17.295Z,17.77
2023-03-05T17:09:46.381Z,16.27
2023-03-05T17:12:14.411Z,16.60
2023-03-05T17:14:43.088Z,17.00
2023-03-05T17:17:12.004Z,17.07
2023-03-05T17:19:40.372Z,17.43
2023-03-05T17:22:11.578Z,16.50
2023-03-05T17:24:42.763Z,16.07
2023-03-05T17:27:13.076Z,19.03
2023-03-05T17:29:41.036Z,17.47
2023-03-05T17:32:09.209Z,17.13
2023-03-05T17:34:37.181Z,16.10
2023-03-05T17:37:06.234Z,15.80
2023-03-05T17:39:35.906Z,15.97
2023-03-05T17:42:03.762Z,16.03
2023-03-05T17:44:31.757Z,16.50
2023-03-05T17:46:59.790Z,15.57
2023-03-05T17:49:27.646Z,14.93
2023-03-05T17:51:55.460Z,14.97
2023-03-05T17:54:23.844Z,16.53
2023-03-05T17:56:56.565Z,17.93
2023-03-05T17:59:26.117Z,15.77
2023-03-05T18:01:54.072Z,16.13
2023-03-05T18:04:25.553Z,14.77
2023-03-05T18:06:53.457Z,14.77
2023-03-05T18:09:21.373Z,15.93
2023-03-05T18:11:49.192Z,15.43
2023-03-05T18:14:19.405Z,15.30
2023-03-05T18:20:04.169Z,13.83
2023-03-05T18:23:09.455Z,14.93
2023-03-05T18:25:37.624Z,14.83
2023-03-05T18:28:10.604Z,14.70
2023-03-05T18:30:42.089Z,14.40
2023-03-05T18:33:19.879Z,14.43
2023-03-05T18:35:53.044Z,14.70
2023-03-05T18:38:26.584Z,14.47
2023-03-05T18:40:57.839Z,16.70
2023-03-05T18:43:54.361Z,13.87
2023-03-05T18:49:36.303Z,14.07
2023-03-05T18:52:32.249Z,14.80
2023-03-05T18:55:09.918Z,14.47
2023-03-05T18:57:50.372Z,14.33
2023-03-05T19:00:40.913Z,14.67
2023-03-05T19:03:45.510Z,13.50
2023-03-05T19:13:41.169Z,15.23
2023-03-05T19:16:34.896Z,13.50
2023-03-05T19:19:35.031Z,16.27
2023-03-05T19:22:27.113Z,13.43
2023-03-05T19:30:33.169Z,13.77
2023-03-05T19:33:20.448Z,13.90
2023-03-05T19:36:01.218Z,13.77
2023-03-05T19:38:37.150Z,14.20
2023-03-05T19:41:14.469Z,14.13
2023-03-05T19:46:36.465Z,14.27
2023-03-05T19:49:06.429Z,14.37
2023-03-05T19:52:24.499Z,14.43
2023-03-05T19:55:09.189Z,14.27
2023-03-05T19:57:46.277Z,14.37
2023-03-05T20:00:35.536Z,14.40
2023-03-05T20:03:06.515Z,14.23
2023-03-05T20:05:37.346Z,15.87
2023-03-05T20:08:26.407Z,14.23
2023-03-05T20:11:07.392Z,14.70
2023-03-05T20:17:01.561Z,13.57
2023-03-05T20:19:59.141Z,15.73
2023-03-05T20:26:10.098Z,14.10
2023-03-05T20:28:56.050Z,14.73
2023-03-05T20:34:41.692Z,15.37
2023-03-05T20:37:52.956Z,13.43
2023-03-05T20:40:35.647Z,13.30
2023-03-05T20:43:21.786Z,12.70
2023-03-05T20:48:59.544Z,13.40
2023-03-05T20:51:54.122Z,14.10
2023-03-05T20:54:27.510Z,13.37
2023-03-05T20:57:17.009Z,13.17
2023-03-05T20:59:59.631Z,14.50
2023-03-05T21:03:05.527Z,13.27
2023-03-05T21:05:42.020Z,13.77
2023-03-05T21:08:14.837Z,13.80
2023-03-05T21:10:50.249Z,16.63
2023-03-05T21:13:28.186Z,15.30
2023-03-05T21:16:01.676Z,14.97
2023-03-05T21:18:32.413Z,15.87
2023-03-05T21:21:16.793Z,14.50
2023-03-05T21:23:48.290Z,14.37
2023-03-05T21:26:20.208Z,14.07
2023-03-05T21:28:53.578Z,13.73
2023-03-05T21:31:34.058Z,15.70
2023-03-05T21:34:03.881Z,15.53
2023-03-05T21:36:33.091Z,13.60
2023-03-05T21:39:03.971Z,14.63
2023-03-05T21:41:34.601Z,15.73
2023-03-05T21:44:07.115Z,13.23
2023-03-05T21:46:37.652Z,14.10
2023-03-05T21:52:13.162Z,13.67
2023-03-05T21:54:47.138Z,13.17
2023-03-05T21:57:24.432Z,14.03
2023-03-05T22:00:07.547Z,13.63
2023-03-05T22:02:42.458Z,14.30
2023-03-05T22:05:23.938Z,13.07
2023-03-05T22:07:51.917Z,12.67
2023-03-05T22:10:23.436Z,13.13
2023-03-05T22:13:17.927Z,12.23
2023-03-05T22:15:48.036Z,14.50
2023-03-05T22:18:19.264Z,12.40
2023-03-05T22:20:47.574Z,13.67
2023-03-05T22:23:16.625Z,12.67
2023-03-05T22:25:45.229Z,12.30
2023-03-05T22:28:18.457Z,13.20
2023-03-05T22:30:49.707Z,13.43
2023-03-05T22:33:22.013Z,14.47
2023-03-05T22:35:51.281Z,11.93
2023-03-05T22:38:19.611Z,14.00
2023-03-05T22:40:49.478Z,13.53
2023-03-05T22:43:18.760Z,13.07
2023-03-05T22:45:46.769Z,13.23
2023-03-05T22:48:15.506Z,12.67
2023-03-05T22:50:45.365Z,14.27
2023-03-05T22:53:13.747Z,13.50
2023-03-05T22:55:43.120Z,12.33
2023-03-05T22:58:11.207Z,13.17
2023-03-05T23:00:39.505Z,13.30
2023-03-05T23:03:07.897Z,13.13
2023-03-05T23:05:36.456Z,12.67
2023-03-05T23:08:06.482Z,13.37
2023-03-05T23:10:34.896Z,12.83
2023-03-05T23:13:03.354Z,13.13
2023-03-05T23:15:33.029Z,11.53
2023-03-05T23:18:01.104Z,11.73
2023-03-05T23:20:32.222Z,12.77
2023-03-05T23:23:00.799Z,12.70
2023-03-05T23:25:31.813Z,12.87
2023-03-05T23:28:00.820Z,12.40
2023-03-05T23:30:29.570Z,12.57
2023-03-05T23:32:59.455Z,11.87
2023-03-05T23:35:29.311Z,12.40
2023-03-05T23:37:58.439Z,11.60
2023-03-05T23:40:30.363Z,11.93
2023-03-05T23:42:58.414Z,13.17
2023-03-05T23:45:26.974Z,11.67
2023-03-05T23:47:54.854Z,12.33
2023-03-05T23:50:26.196Z,14.30
2023-03-05T23:52:55.264Z,13.93
2023-03-05T23:55:25.787Z,13.33
2023-03-05T23:57:56.741Z,13.27
